Antigo, WI

12:13 PM CDT on July 26, 2014 (GMT -0500)
Langlade County (KAIG) Elev 1522 ft | 45.16 °N, 89.11 °W | Change Station

Current weather conditions updated 38 minutes ago

Overcast
Overcast
74 °F
Feels Like 74 °F
N
9
Wind Variable Wind from West

Today is forecast to be Much Warmer than yesterday. Showers and possibly some thunder overnight tonight.

Today
High -- | Low -- °F
--% Chance of Precip.
Yesterday
High -- | Low -- °F
Precip. -- in
5:34 AM 8:30 PM
Waning Crescent, 0% visible
Pressure 29.81 in
Visibility 10.0 miles
Clouds Mostly Cloudy 1500 ft
Overcast 2200 ft
Dew Point 68 °F
Humidity 79%
Rainfall 0.00 in
Snow Depth Not available.
UV 3 out of 12
Pollen 6.70 out of 12
Air Quality Not available.
Flu Activity Not available.
METAR KAIG 261635Z AUTO 26008KT 10SM BKN015 OVC022 24/20 A2981 RMK AO2 T02350197

More Conditions Fewer Conditions

Pressure 29.81 in
Visibility 10.0 miles
Clouds Mostly Cloudy 1500 ft
Overcast 2200 ft
Dew Point 68 °F
Humidity 79%
Rainfall 0.00 in
Snow Depth Not available.
UV 3 out of 12
Pollen 6.70 out of 12
Air Quality Not available.
Flu Activity Not available.
METAR KAIG 261635Z AUTO 26008KT 10SM BKN015 OVC022 24/20 A2981 RMK AO2 T02350197

More Conditions Fewer Conditions

10-Day Weather Forecast

Almanac

Astronomy

Jul. 26, 2014 Rise Set
Actual Time 5:34 AM CDT 8:30 PM CDT
Civil Twilight 4:59 AM CDT 9:05 PM CDT
Nautical Twilight 4:15 AM CDT 9:49 PM CDT
Astronomical Twilight 3:23 AM CDT 10:41 PM CDT
Moon 5:30 AM CDT 8:00 PM CDT
Length of Visible Light 16h 05m
Length of Day
14h 55m
Tomorrow will be 2m 12s shorter.
Waning Crescent, 0% of the Moon is Illuminated
Today
Waning Crescent
Jul 26
New
Aug 3
First Quarter
Aug 10
Full
Aug 17
Last Quarter

Today's Extremes

State Highs State Lows

Community

WunderPhotos

Upload Photos

1,737,638 photos uploaded!

Nearby

Snow Depth

Station Depth Elevation
No new snow has been reported.

Earthquake Activity

City Distance Mag. Time & Date
No recent earthquake activity has been reported nearby.
Minimum magnitude displayed is 2.5.

Coastal Water Temperatures

Place Temperature
No Stations Reporting

Nearby Weather Stations

Station Location Temp. Heat Index Dew Point Humidity Wind Precip. Elev Updated Type
Wittenberg Wi., Wittenberg, WI 74.1 °F 73 °F 70 °F 87% SSW  at  2.9 mph 0.00 in / hr 1191 ft 12:13 PM CDT Rapid Fire
GLEASON, WI 79.3 °F 83 °F 72 °F 78% SSE  at  0.0 mph 0.00 in / hr 1605 ft 12:13 PM CDT Rapid Fire

Show More Stations Show Fewer Stations